createdAt,value
2023-04-09T00:01:43.703Z,5.20
2023-04-09T00:04:10.550Z,5.20
2023-04-09T00:06:37.167Z,5.20
2023-04-09T00:09:03.799Z,5.30
2023-04-09T00:11:31.131Z,5.30
2023-04-09T00:13:58.406Z,5.30
2023-04-09T00:16:25.248Z,5.30
2023-04-09T00:18:52.302Z,5.30
2023-04-09T00:21:20.437Z,5.40
2023-04-09T00:23:47.002Z,5.40
2023-04-09T00:26:13.644Z,5.40
2023-04-09T00:28:40.310Z,5.40
2023-04-09T00:31:06.924Z,5.40
2023-04-09T00:33:33.475Z,5.40
2023-04-09T00:36:00.270Z,5.40
2023-04-09T00:38:27.028Z,5.40
2023-04-09T00:40:53.552Z,5.40
2023-04-09T00:43:20.480Z,5.40
2023-04-09T00:45:47.834Z,5.40
2023-04-09T00:48:15.849Z,5.30
2023-04-09T00:50:42.882Z,5.30
2023-04-09T00:53:10.718Z,5.30
2023-04-09T00:55:40.234Z,5.20
2023-04-09T00:58:07.146Z,5.20
2023-04-09T01:00:33.806Z,5.30
2023-04-09T01:03:01.037Z,5.30
2023-04-09T01:05:54.188Z,5.30
2023-04-09T01:08:48.733Z,5.30
2023-04-09T01:11:37.772Z,5.30
2023-04-09T01:14:08.440Z,5.10
2023-04-09T01:16:37.773Z,5.30
2023-04-09T01:19:35.204Z,5.40
2023-04-09T01:22:05.662Z,5.40
2023-04-09T01:25:00.190Z,5.40
2023-04-09T01:27:37.627Z,5.40
2023-04-09T01:30:05.162Z,5.50
2023-04-09T01:32:35.326Z,5.50
2023-04-09T01:35:03.879Z,5.50
2023-04-09T01:37:30.660Z,5.50
2023-04-09T01:39:57.415Z,5.50
2023-04-09T01:42:24.617Z,5.40
2023-04-09T01:44:52.026Z,5.40
2023-04-09T01:47:19.527Z,5.40
2023-04-09T01:49:46.403Z,5.40
2023-04-09T01:52:13.260Z,5.40
2023-04-09T01:54:39.786Z,5.40
2023-04-09T01:57:06.364Z,5.40
2023-04-09T01:59:33.021Z,5.40
2023-04-09T02:02:09.434Z,5.40
2023-04-09T02:04:40.680Z,5.40
2023-04-09T02:07:38.668Z,5.40
2023-04-09T02:10:08.493Z,5.40
2023-04-09T02:12:37.453Z,5.40
2023-04-09T02:15:05.896Z,5.40
2023-04-09T02:17:32.563Z,5.40
2023-04-09T02:19:59.123Z,5.40
2023-04-09T02:22:25.710Z,5.40
2023-04-09T02:24:52.300Z,5.40
2023-04-09T02:27:18.841Z,5.40
2023-04-09T02:29:45.525Z,5.50
2023-04-09T02:32:12.106Z,5.50
2023-04-09T02:34:38.639Z,5.50
2023-04-09T02:37:05.253Z,5.50
2023-04-09T02:39:31.844Z,5.50
2023-04-09T02:41:58.507Z,5.50
2023-04-09T02:44:25.208Z,5.40
2023-04-09T02:46:52.533Z,5.40
2023-04-09T02:49:19.127Z,5.40
2023-04-09T02:51:45.830Z,5.30
2023-04-09T02:54:12.439Z,5.30
2023-04-09T02:56:39.005Z,5.30
2023-04-09T02:59:05.629Z,5.30
2023-04-09T03:01:32.256Z,5.20
2023-04-09T03:03:58.976Z,5.20
2023-04-09T03:06:26.500Z,5.10
2023-04-09T03:08:53.237Z,5.10
2023-04-09T03:11:19.915Z,5.00
2023-04-09T03:13:46.469Z,5.00
2023-04-09T03:16:13.030Z,4.90
2023-04-09T03:18:39.664Z,4.80
2023-04-09T03:21:07.575Z,4.70
2023-04-09T03:23:35.035Z,4.70
2023-04-09T03:26:05.849Z,4.60
2023-04-09T03:28:32.581Z,4.60
2023-04-09T03:30:59.205Z,4.70
2023-04-09T03:33:25.914Z,4.60
2023-04-09T03:35:52.744Z,4.60
2023-04-09T03:38:19.901Z,4.60
2023-04-09T03:40:46.468Z,4.70
2023-04-09T03:43:12.999Z,4.70
2023-04-09T03:45:39.573Z,4.80
2023-04-09T03:48:06.275Z,4.80
2023-04-09T03:50:38.600Z,4.90
2023-04-09T03:53:05.250Z,4.90
2023-04-09T03:55:31.838Z,5.00
2023-04-09T03:57:58.438Z,5.00
2023-04-09T04:00:24.992Z,5.00
2023-04-09T04:02:52.441Z,5.00
2023-04-09T04:05:19.155Z,5.00
2023-04-09T04:07:45.787Z,4.90
2023-04-09T04:10:12.470Z,4.80
2023-04-09T04:12:38.985Z,4.80
2023-04-09T04:15:06.078Z,4.70
2023-04-09T04:17:32.609Z,4.70
2023-04-09T04:19:59.211Z,4.70
2023-04-09T04:22:26.356Z,4.80
2023-04-09T04:24:53.051Z,4.80
2023-04-09T04:27:19.590Z,4.80
2023-04-09T04:29:46.147Z,4.80
2023-04-09T04:32:12.725Z,4.90
2023-04-09T04:34:39.278Z,4.90
2023-04-09T04:37:05.804Z,4.90
2023-04-09T04:39:32.348Z,4.90
2023-04-09T04:41:58.910Z,4.90
2023-04-09T04:44:25.480Z,4.90
2023-04-09T04:46:52.021Z,4.90
2023-04-09T04:49:18.530Z,4.90
2023-04-09T04:51:45.074Z,4.90
2023-04-09T04:54:11.700Z,4.90
2023-04-09T04:56:38.298Z,4.90
2023-04-09T04:59:04.869Z,4.80
2023-04-09T05:01:31.913Z,4.80
2023-04-09T05:03:58.616Z,4.80
2023-04-09T05:06:26.733Z,4.80
2023-04-09T05:08:54.350Z,4.80
2023-04-09T05:11:21.122Z,4.90
2023-04-09T05:13:47.705Z,4.90
2023-04-09T05:16:20.734Z,4.90
2023-04-09T05:18:47.763Z,4.90
2023-04-09T05:21:14.341Z,5.00
2023-04-09T05:23:40.846Z,5.10
2023-04-09T05:26:07.402Z,5.20
2023-04-09T05:28:34.055Z,5.30
2023-04-09T05:31:00.867Z,5.40
2023-04-09T05:33:27.444Z,5.40
2023-04-09T05:35:54.041Z,5.40
2023-04-09T05:38:20.651Z,5.40
2023-04-09T05:40:48.963Z,5.50
2023-04-09T05:43:15.491Z,5.50
2023-04-09T05:45:45.096Z,5.60
2023-04-09T05:48:11.693Z,5.70
2023-04-09T05:50:47.551Z,5.70
2023-04-09T05:53:22.485Z,5.80
2023-04-09T05:55:49.366Z,5.90
2023-04-09T05:58:18.621Z,6.00
2023-04-09T06:00:45.180Z,6.10
2023-04-09T06:03:11.872Z,6.20
2023-04-09T06:05:38.709Z,6.30
2023-04-09T06:08:05.321Z,6.40
2023-04-09T06:10:34.839Z,6.60
2023-04-09T06:13:01.475Z,6.70
2023-04-09T06:15:28.491Z,6.80
2023-04-09T06:17:56.522Z,6.90
2023-04-09T06:20:24.906Z,7.00
2023-04-09T06:22:51.426Z,7.10
2023-04-09T06:25:18.005Z,7.30
2023-04-09T06:27:44.526Z,7.50
2023-04-09T06:30:11.456Z,7.70
2023-04-09T06:32:51.160Z,7.80
2023-04-09T06:35:20.865Z,8.00
2023-04-09T06:37:47.446Z,8.10
2023-04-09T06:40:14.777Z,8.00
2023-04-09T06:42:41.404Z,7.90
2023-04-09T06:45:08.829Z,7.90
2023-04-09T06:47:36.017Z,7.90
2023-04-09T06:50:03.080Z,7.90
2023-04-09T06:52:29.611Z,7.90
2023-04-09T06:54:56.134Z,8.00
2023-04-09T06:57:22.686Z,8.00
2023-04-09T06:59:49.250Z,8.10
2023-04-09T07:02:16.049Z,8.10
2023-04-09T07:04:42.790Z,8.30
2023-04-09T07:07:09.526Z,8.30
2023-04-09T07:09:36.473Z,8.30
2023-04-09T07:12:03.031Z,8.40
2023-04-09T07:14:29.639Z,8.40
2023-04-09T07:16:56.309Z,8.40
2023-04-09T07:19:22.891Z,8.50
2023-04-09T07:21:49.454Z,8.70
2023-04-09T07:24:16.015Z,8.80
2023-04-09T07:26:42.750Z,8.70
2023-04-09T07:29:09.612Z,8.90
2023-04-09T07:31:36.224Z,9.00
2023-04-09T07:34:03.388Z,9.10
2023-04-09T07:36:30.130Z,9.00
2023-04-09T07:38:57.398Z,9.00
2023-04-09T07:41:23.986Z,9.00
2023-04-09T07:43:50.586Z,9.20
2023-04-09T07:53:44.738Z,9.50
2023-04-09T11:03:10.655Z,13.30
2023-04-09T11:05:40.964Z,13.00
2023-04-09T11:08:13.000Z,13.20
2023-04-09T11:10:41.959Z,13.70
2023-04-09T11:13:13.297Z,13.00
2023-04-09T11:15:40.092Z,13.00
2023-04-09T11:18:07.049Z,13.10
2023-04-09T11:20:34.373Z,13.40
2023-04-09T11:23:01.062Z,13.50
2023-04-09T18:23:35.271Z,10.90
2023-04-09T18:26:02.272Z,10.80
2023-04-09T18:28:29.211Z,10.70
2023-04-09T18:30:55.880Z,10.60
2023-04-09T18:33:22.566Z,10.50
2023-04-09T18:35:49.176Z,10.40
2023-04-09T18:38:15.815Z,10.40
2023-04-09T18:40:45.578Z,10.30
2023-04-09T18:43:12.387Z,10.30
2023-04-09T18:45:39.801Z,10.30
2023-04-09T18:48:07.908Z,10.40
2023-04-09T18:50:34.894Z,10.30
2023-04-09T18:53:03.348Z,10.10
2023-04-09T18:55:30.150Z,10.00
2023-04-09T18:57:57.334Z,10.00
2023-04-09T19:00:24.164Z,10.00
2023-04-09T19:02:50.949Z,9.90
2023-04-09T19:05:17.997Z,9.90
2023-04-09T19:07:44.643Z,10.00
2023-04-09T19:10:13.431Z,10.00
2023-04-09T19:12:47.261Z,9.90
2023-04-09T19:15:13.832Z,9.80
2023-04-09T19:17:40.599Z,9.80
2023-04-09T19:20:07.624Z,9.90
2023-04-09T19:22:34.212Z,9.80
2023-04-09T19:25:00.798Z,9.90
2023-04-09T19:27:27.358Z,9.80
2023-04-09T19:29:53.963Z,9.80
2023-04-09T19:32:20.736Z,9.60
2023-04-09T19:34:47.293Z,9.60
2023-04-09T19:37:15.034Z,9.50
2023-04-09T19:39:41.799Z,9.50
2023-04-09T19:42:08.630Z,9.50
2023-04-09T19:44:35.239Z,9.50
2023-04-09T19:47:01.895Z,9.40
2023-04-09T19:49:29.280Z,9.50
2023-04-09T19:51:55.954Z,9.50
2023-04-09T19:54:22.554Z,9.50
2023-04-09T19:56:49.242Z,9.40
2023-04-09T19:59:15.950Z,9.30
2023-04-09T20:01:43.193Z,9.20
2023-04-09T20:04:09.832Z,9.10
2023-04-09T20:06:36.512Z,8.90
2023-04-09T20:09:03.206Z,8.90
2023-04-09T20:11:29.766Z,8.80
2023-04-09T20:13:57.150Z,8.70
2023-04-09T20:16:23.835Z,8.70
2023-04-09T20:18:50.504Z,8.60
2023-04-09T20:21:17.231Z,8.60
2023-04-09T20:23:45.371Z,8.50
2023-04-09T20:26:13.557Z,8.50
2023-04-09T20:28:40.787Z,8.40
2023-04-09T20:31:10.516Z,8.30
2023-04-09T20:33:37.092Z,8.30
2023-04-09T20:36:03.805Z,8.30
2023-04-09T20:38:30.870Z,8.20
2023-04-09T20:40:57.557Z,8.20
2023-04-09T20:43:24.164Z,8.10
2023-04-09T20:45:52.736Z,8.10
2023-04-09T20:48:19.702Z,8.10
2023-04-09T20:50:46.630Z,8.00
2023-04-09T20:53:13.266Z,8.00
2023-04-09T20:55:39.855Z,8.00
2023-04-09T20:58:06.491Z,7.90
2023-04-09T21:00:33.080Z,7.90
2023-04-09T21:02:59.904Z,7.90
2023-04-09T21:05:26.598Z,7.80
2023-04-09T21:07:53.322Z,7.80
2023-04-09T21:10:20.226Z,7.80
2023-04-09T21:12:46.823Z,7.70
2023-04-09T21:15:13.379Z,7.70
2023-04-09T21:17:40.161Z,7.70
2023-04-09T21:20:07.491Z,7.70
2023-04-09T21:22:34.655Z,7.60
2023-04-09T21:25:02.954Z,7.50
2023-04-09T21:27:29.619Z,7.50
2023-04-09T21:29:56.214Z,7.50
2023-04-09T21:32:22.888Z,7.50
2023-04-09T21:34:49.483Z,7.50
2023-04-09T21:37:16.218Z,7.40
2023-04-09T21:39:42.731Z,7.30
2023-04-09T21:42:09.247Z,7.20
2023-04-09T21:44:35.960Z,7.20
2023-04-09T21:47:07.364Z,7.20
2023-04-09T21:49:38.970Z,7.20
2023-04-09T21:52:06.948Z,7.20
2023-04-09T21:54:33.561Z,7.30
2023-04-09T21:57:00.921Z,7.20
2023-04-09T21:59:28.038Z,7.20
2023-04-09T22:01:54.637Z,7.20
2023-04-09T22:04:21.179Z,7.20
2023-04-09T22:06:48.256Z,7.20
2023-04-09T22:09:14.833Z,7.20
2023-04-09T22:11:42.442Z,7.10
2023-04-09T22:14:08.951Z,7.10
2023-04-09T22:16:35.468Z,7.10
2023-04-09T22:19:02.236Z,7.10
2023-04-09T22:21:28.792Z,7.10
2023-04-09T22:23:55.857Z,7.20
2023-04-09T22:26:22.554Z,7.20
2023-04-09T22:28:50.136Z,7.10
2023-04-09T22:31:16.809Z,7.20
2023-04-09T22:33:43.345Z,7.20
2023-04-09T22:36:09.962Z,7.10
2023-04-09T22:38:36.570Z,7.10
2023-04-09T22:41:03.171Z,7.10
2023-04-09T22:43:29.712Z,7.10
2023-04-09T22:45:57.085Z,7.00
2023-04-09T22:48:23.803Z,7.00
2023-04-09T22:50:50.777Z,6.90
2023-04-09T22:53:21.666Z,6.80
2023-04-09T22:55:51.088Z,6.80
2023-04-09T22:58:18.554Z,6.80
2023-04-09T23:00:45.483Z,6.70
2023-04-09T23:03:12.282Z,6.70
2023-04-09T23:05:39.474Z,6.70
2023-04-09T23:08:06.329Z,6.70
2023-04-09T23:10:33.710Z,6.70
2023-04-09T23:13:00.308Z,6.70
2023-04-09T23:15:27.363Z,6.70
2023-04-09T23:17:54.408Z,6.70
2023-04-09T23:20:20.986Z,6.60
2023-04-09T23:22:48.213Z,6.60
2023-04-09T23:25:16.034Z,6.60
2023-04-09T23:27:43.137Z,6.50
2023-04-09T23:30:10.446Z,6.50
2023-04-09T23:32:37.108Z,6.50
2023-04-09T23:35:04.428Z,6.40
2023-04-09T23:37:31.047Z,6.30
2023-04-09T23:39:57.566Z,6.30
2023-04-09T23:42:24.146Z,6.00
2023-04-09T23:44:50.680Z,6.30
2023-04-09T23:47:17.404Z,6.30
2023-04-09T23:49:44.826Z,6.20
2023-04-09T23:52:11.456Z,6.10
2023-04-09T23:54:37.987Z,6.10
2023-04-09T23:57:04.570Z,6.20
2023-04-09T23:59:33.766Z,6.10
